createdAt,value
2019-02-28T00:00:26.553Z,18.23
2019-02-28T00:02:53.868Z,18.60
2019-02-28T00:05:20.419Z,18.63
2019-02-28T00:07:46.235Z,17.50
2019-02-28T00:10:12.156Z,17.50
2019-02-28T00:12:38.101Z,17.43
2019-02-28T00:15:06.530Z,17.73
2019-02-28T00:17:32.365Z,18.17
2019-02-28T00:19:58.724Z,18.43
2019-02-28T00:22:24.754Z,16.80
2019-02-28T00:24:50.628Z,17.47
2019-02-28T00:27:20.924Z,17.83
2019-02-28T00:29:44.586Z,17.30
2019-02-28T00:32:10.660Z,19.30
2019-02-28T00:34:39.312Z,18.73
2019-02-28T00:37:04.398Z,18.67
2019-02-28T00:39:31.395Z,18.47
2019-02-28T00:41:58.017Z,17.63
2019-02-28T00:44:23.983Z,18.50
2019-02-28T00:46:49.919Z,17.50
2019-02-28T00:49:15.778Z,16.90
2019-02-28T00:51:45.212Z,16.83
2019-02-28T00:54:11.092Z,17.03
2019-02-28T00:56:37.036Z,17.50
2019-02-28T00:59:03.121Z,16.40
2019-02-28T01:01:30.606Z,17.63
2019-02-28T01:03:58.035Z,17.10
2019-02-28T01:06:24.496Z,16.37
2019-02-28T01:08:52.966Z,16.70
2019-02-28T01:11:18.305Z,16.83
2019-02-28T01:13:44.354Z,16.70
2019-02-28T01:16:10.213Z,16.17
2019-02-28T01:18:36.079Z,15.93
2019-02-28T01:21:02.131Z,16.57
2019-02-28T01:23:29.408Z,16.30
2019-02-28T01:25:55.873Z,17.03
2019-02-28T01:28:23.475Z,16.80
2019-02-28T01:30:49.470Z,17.60
2019-02-28T01:33:15.376Z,16.73
2019-02-28T01:35:41.508Z,17.30
2019-02-28T01:38:07.563Z,18.23
2019-02-28T01:40:35.195Z,17.83
2019-02-28T01:43:01.408Z,18.50
2019-02-28T01:45:27.243Z,17.67
2019-02-28T01:47:53.195Z,17.60
2019-02-28T01:50:19.145Z,17.90
2019-02-28T01:52:46.205Z,18.43
2019-02-28T01:55:12.276Z,16.77
2019-02-28T01:57:42.341Z,17.63
2019-02-28T02:00:14.981Z,16.63
2019-02-28T02:02:40.955Z,16.83
2019-02-28T02:05:07.125Z,16.73
2019-02-28T02:07:34.377Z,16.70
2019-02-28T02:10:00.804Z,16.43
2019-02-28T02:12:31.333Z,16.50
2019-02-28T02:14:54.532Z,16.27
2019-02-28T02:17:20.380Z,16.27
2019-02-28T02:19:49.362Z,17.00
2019-02-28T02:22:14.263Z,16.33
2019-02-28T02:24:40.202Z,17.67
2019-02-28T02:27:06.228Z,16.77
2019-02-28T02:29:32.397Z,17.10
2019-02-28T02:32:02.293Z,17.50
2019-02-28T02:34:28.290Z,18.03
2019-02-28T02:36:55.499Z,16.97
2019-02-28T02:39:21.449Z,17.30
2019-02-28T02:41:47.399Z,16.53
2019-02-28T02:44:13.252Z,16.77
2019-02-28T02:46:39.245Z,16.73
2019-02-28T02:49:05.119Z,16.00
2019-02-28T02:51:30.973Z,15.70
2019-02-28T02:53:56.891Z,16.30
2019-02-28T02:56:22.745Z,16.20
2019-02-28T02:58:48.737Z,16.03
2019-02-28T03:01:14.607Z,16.60
2019-02-28T03:03:44.120Z,17.47
2019-02-28T03:06:12.223Z,16.90
2019-02-28T03:08:37.325Z,15.63
2019-02-28T03:11:03.661Z,16.40
2019-02-28T03:13:29.607Z,16.30
2019-02-28T03:15:59.284Z,16.53
2019-02-28T03:18:23.446Z,17.00
2019-02-28T03:20:49.302Z,17.77
2019-02-28T03:23:15.184Z,16.87
2019-02-28T03:25:41.126Z,17.43
2019-02-28T03:28:06.950Z,18.20
2019-02-28T03:30:33.834Z,18.27
2019-02-28T03:33:00.059Z,17.07
2019-02-28T03:35:25.876Z,16.60
2019-02-28T03:37:51.859Z,17.27
2019-02-28T03:40:17.833Z,17.80
2019-02-28T03:42:43.719Z,18.43
2019-02-28T03:47:58.945Z,17.30
2019-02-28T03:50:25.584Z,17.80
2019-02-28T03:52:51.571Z,17.93
2019-02-28T03:55:17.683Z,17.27
2019-02-28T03:57:43.638Z,17.83
2019-02-28T04:00:15.912Z,17.03
2019-02-28T04:02:41.946Z,17.67
2019-02-28T04:05:08.376Z,17.30
2019-02-28T04:07:34.726Z,16.93
2019-02-28T04:10:00.849Z,16.30
2019-02-28T04:12:26.761Z,17.50
2019-02-28T04:14:52.613Z,17.57
2019-02-28T04:17:18.551Z,17.17
2019-02-28T04:19:44.562Z,18.13
2019-02-28T04:22:10.500Z,17.27
2019-02-28T04:24:36.333Z,19.17
2019-02-28T04:27:06.281Z,19.33
2019-02-28T04:29:31.340Z,18.93
2019-02-28T04:31:58.170Z,18.77
2019-02-28T04:34:24.105Z,17.43
2019-02-28T04:36:50.030Z,17.60
2019-02-28T04:39:15.915Z,17.47
2019-02-28T04:41:41.855Z,17.03
2019-02-28T04:44:07.745Z,17.90
2019-02-28T04:46:33.761Z,16.70
2019-02-28T04:48:59.718Z,16.63
2019-02-28T04:51:25.688Z,16.37
2019-02-28T04:53:53.140Z,16.27
2019-02-28T04:56:19.519Z,17.10
2019-02-28T04:58:45.423Z,16.80
2019-02-28T05:01:12.329Z,17.90
2019-02-28T05:03:39.132Z,16.47
2019-02-28T05:06:05.086Z,17.27
2019-02-28T05:08:31.139Z,18.07
2019-02-28T05:10:56.994Z,17.83
2019-02-28T05:13:22.837Z,18.30
2019-02-28T05:15:48.816Z,18.97
2019-02-28T05:18:14.642Z,18.93
2019-02-28T05:20:44.668Z,18.97
2019-02-28T05:23:08.438Z,19.33
2019-02-28T05:25:36.193Z,18.40
2019-02-28T05:28:02.238Z,18.53
2019-02-28T05:30:28.240Z,17.80
2019-02-28T05:32:54.089Z,18.10
2019-02-28T05:35:25.527Z,17.80
2019-02-28T05:37:48.551Z,17.97
2019-02-28T05:40:15.934Z,17.80
2019-02-28T05:42:42.038Z,17.43
2019-02-28T05:45:11.398Z,17.07
2019-02-28T05:47:45.813Z,17.20
2019-02-28T05:50:15.455Z,18.30
2019-02-28T05:52:37.707Z,17.90
2019-02-28T05:55:08.381Z,18.27
2019-02-28T05:57:34.340Z,17.90
2019-02-28T06:00:01.883Z,18.03
2019-02-28T06:02:28.486Z,17.17
2019-02-28T06:04:54.345Z,18.37
2019-02-28T06:07:20.310Z,17.93
2019-02-28T06:09:48.666Z,18.50
2019-02-28T06:12:14.613Z,17.83
2019-02-28T06:14:40.493Z,17.77
2019-02-28T06:17:06.326Z,17.73
2019-02-28T06:19:32.274Z,18.43
2019-02-28T06:21:59.429Z,19.57
2019-02-28T06:24:25.941Z,18.83
2019-02-28T06:26:51.754Z,18.80
2019-02-28T06:29:17.699Z,19.00
2019-02-28T06:31:45.430Z,18.33
2019-02-28T06:34:11.471Z,19.60
2019-02-28T06:36:37.333Z,19.47
2019-02-28T06:39:04.915Z,18.70
2019-02-28T06:41:30.812Z,18.80
2019-02-28T06:43:56.783Z,19.73
2019-02-28T06:46:22.649Z,18.57
2019-02-28T06:48:48.607Z,18.13
2019-02-28T06:51:16.818Z,18.87
2019-02-28T06:53:42.337Z,19.73
2019-02-28T06:56:08.222Z,20.40
2019-02-28T06:58:34.165Z,19.73
2019-02-28T07:01:00.247Z,18.63
2019-02-28T07:03:26.106Z,20.00
2019-02-28T07:05:51.928Z,19.47
2019-02-28T07:08:20.741Z,20.40
2019-02-28T07:10:48.378Z,20.20
2019-02-28T07:13:13.515Z,19.27
2019-02-28T07:15:39.440Z,19.03
2019-02-28T07:18:05.285Z,19.80
2019-02-28T07:20:31.254Z,20.60
2019-02-28T07:22:57.214Z,19.63
2019-02-28T07:25:23.282Z,19.67
2019-02-28T07:27:49.287Z,19.80
2019-02-28T07:30:19.227Z,21.17
2019-02-28T07:32:45.584Z,20.40
2019-02-28T07:35:11.848Z,20.43
2019-02-28T07:37:37.801Z,20.97
2019-02-28T07:40:15.509Z,20.40
2019-02-28T07:42:38.604Z,20.60
2019-02-28T07:45:06.643Z,21.00
2019-02-28T07:47:32.512Z,19.90
2019-02-28T07:49:58.447Z,19.93
2019-02-28T07:52:24.263Z,20.20
2019-02-28T07:54:51.841Z,20.67
2019-02-28T07:57:18.068Z,21.07
2019-02-28T07:59:44.050Z,20.53
2019-02-28T08:02:09.876Z,20.63
2019-02-28T08:04:35.849Z,20.97
2019-02-28T08:07:01.805Z,20.63
2019-02-28T08:09:28.146Z,21.43
2019-02-28T08:11:55.504Z,23.90
2019-02-28T08:14:21.874Z,23.57
2019-02-28T08:16:47.756Z,23.90
2019-02-28T08:19:13.737Z,26.37
2019-02-28T08:21:43.958Z,24.73
2019-02-28T08:24:07.449Z,26.60
2019-02-28T08:26:33.426Z,30.97
2019-02-28T08:28:59.479Z,32.47
2019-02-28T08:31:28.314Z,33.47
2019-02-28T08:33:53.354Z,36.87
2019-02-28T08:36:19.536Z,37.70
2019-02-28T08:38:45.645Z,37.13
2019-02-28T08:41:11.488Z,38.67
2019-02-28T08:43:37.570Z,41.13
2019-02-28T08:46:09.625Z,41.13
2019-02-28T08:48:32.496Z,41.50
2019-02-28T08:50:59.336Z,44.03
2019-02-28T08:53:25.221Z,42.93
2019-02-28T08:55:51.175Z,44.57
2019-02-28T08:58:20.993Z,46.63
2019-02-28T09:00:47.022Z,44.87
2019-02-28T09:03:12.893Z,45.53
2019-02-28T09:05:38.997Z,44.50
2019-02-28T09:08:05.032Z,44.60
2019-02-28T09:10:30.870Z,43.83
2019-02-28T09:12:56.852Z,44.30
2019-02-28T09:15:22.983Z,43.43
2019-02-28T09:17:48.931Z,43.87
2019-02-28T09:20:15.630Z,46.60
2019-02-28T09:22:41.757Z,47.87
2019-02-28T09:25:21.977Z,45.13
2019-02-28T09:27:48.342Z,48.63
2019-02-28T09:30:17.460Z,48.33
2019-02-28T09:32:45.266Z,48.60
2019-02-28T09:35:14.420Z,47.30
2019-02-28T09:37:39.214Z,49.57
2019-02-28T09:40:11.220Z,45.67
2019-02-28T09:42:37.256Z,45.70
2019-02-28T09:45:09.717Z,47.90
2019-02-28T09:47:35.609Z,48.57
2019-02-28T09:50:01.423Z,48.03
2019-02-28T09:52:27.454Z,47.23
2019-02-28T09:54:56.313Z,46.93
2019-02-28T09:57:22.658Z,46.03
2019-02-28T09:59:48.646Z,45.50
2019-02-28T10:02:14.530Z,45.77
2019-02-28T10:04:40.379Z,48.93
2019-02-28T10:07:06.356Z,46.80
2019-02-28T10:09:32.328Z,47.60
2019-02-28T10:11:58.187Z,44.93
2019-02-28T10:14:25.734Z,44.87
2019-02-28T10:16:52.660Z,44.70
2019-02-28T10:19:19.213Z,44.93
2019-02-28T10:21:51.635Z,46.83
2019-02-28T10:24:12.817Z,45.73
2019-02-28T10:26:38.860Z,47.97
2019-02-28T10:29:07.443Z,48.13
2019-02-28T10:31:36.422Z,48.13
2019-02-28T10:34:00.315Z,49.60
2019-02-28T10:36:26.256Z,48.10
2019-02-28T10:38:52.260Z,48.67
2019-02-28T10:41:18.086Z,49.97
2019-02-28T10:43:49.913Z,49.33
2019-02-28T10:46:16.573Z,48.63
2019-02-28T10:48:50.807Z,48.40
2019-02-28T10:51:13.941Z,48.93
2019-02-28T10:53:39.317Z,49.20
2019-02-28T10:56:06.217Z,49.57
2019-02-28T10:58:32.191Z,48.07
2019-02-28T11:00:58.237Z,47.63
2019-02-28T11:03:24.307Z,49.57
2019-02-28T11:05:53.371Z,52.63
2019-02-28T11:08:19.256Z,50.87
2019-02-28T11:10:45.667Z,50.40
2019-02-28T11:13:17.865Z,49.13
2019-02-28T11:15:47.865Z,46.00
2019-02-28T11:18:12.286Z,46.10
2019-02-28T11:20:39.129Z,45.67
2019-02-28T11:23:05.334Z,45.93
2019-02-28T11:25:34.667Z,47.07
2019-02-28T11:27:59.340Z,46.53
2019-02-28T11:30:31.930Z,44.37
2019-02-28T11:33:02.996Z,44.73
2019-02-28T11:35:26.819Z,45.03
2019-02-28T11:37:52.939Z,46.73
2019-02-28T11:40:21.503Z,46.23
2019-02-28T11:42:47.441Z,48.13
2019-02-28T11:45:18.552Z,47.10
2019-02-28T11:47:47.492Z,45.83
2019-02-28T11:50:13.672Z,47.70
2019-02-28T11:52:40.049Z,47.43
2019-02-28T11:55:11.494Z,47.73
2019-02-28T11:57:41.336Z,47.20
2019-02-28T12:00:21.981Z,48.63
2019-02-28T12:02:59.891Z,47.17
2019-02-28T12:05:21.553Z,47.27
2019-02-28T12:07:47.620Z,47.00
2019-02-28T12:10:13.739Z,48.57
2019-02-28T12:12:41.576Z,49.93
2019-02-28T12:15:10.724Z,50.27
2019-02-28T12:17:36.743Z,50.23
2019-02-28T12:20:05.711Z,48.87
2019-02-28T12:22:31.725Z,49.97
2019-02-28T12:24:57.627Z,51.07
2019-02-28T12:27:24.440Z,51.13
2019-02-28T12:29:51.384Z,51.03
2019-02-28T12:32:17.312Z,51.77
2019-02-28T12:34:43.235Z,52.33
2019-02-28T12:37:09.181Z,53.50
2019-02-28T12:39:36.322Z,53.33
2019-02-28T12:42:03.165Z,55.17
2019-02-28T12:44:29.228Z,53.27
2019-02-28T12:46:55.047Z,56.50
2019-02-28T12:49:22.392Z,56.37
2019-02-28T12:51:49.223Z,58.02
2019-02-28T12:54:15.145Z,56.02
2019-02-28T12:56:41.308Z,59.88
2019-02-28T12:59:09.977Z,57.80
2019-02-28T13:01:35.281Z,61.10
2019-02-28T13:04:01.397Z,60.30
2019-02-28T13:06:27.368Z,61.30
2019-02-28T13:08:53.545Z,60.65
2019-02-28T13:11:19.440Z,60.08
2019-02-28T13:13:45.348Z,59.65
2019-02-28T13:16:11.222Z,61.75
2019-02-28T13:18:39.665Z,63.45
2019-02-28T13:21:06.269Z,64.58
2019-02-28T13:23:34.025Z,65.10
2019-02-28T13:26:00.275Z,65.57
2019-02-28T13:28:26.424Z,67.20
2019-02-28T13:30:52.707Z,64.00
2019-02-28T13:33:18.629Z,61.68
2019-02-28T13:35:47.161Z,65.00
2019-02-28T13:38:17.427Z,64.20
2019-02-28T13:40:40.777Z,61.77
2019-02-28T13:43:08.492Z,63.50
2019-02-28T13:45:34.551Z,63.70
2019-02-28T13:48:00.515Z,65.25
2019-02-28T13:50:28.059Z,67.15
2019-02-28T13:52:54.137Z,64.27
2019-02-28T13:55:20.240Z,63.75
2019-02-28T13:57:46.959Z,63.78
2019-02-28T14:00:28.425Z,61.60
2019-02-28T14:03:00.032Z,59.93
2019-02-28T14:05:26.087Z,58.05
2019-02-28T14:07:52.147Z,61.28
2019-02-28T14:10:18.879Z,58.90
2019-02-28T14:12:45.034Z,60.12
2019-02-28T14:15:17.746Z,61.40
2019-02-28T14:17:43.690Z,60.83
2019-02-28T14:20:10.442Z,57.73
2019-02-28T14:22:36.601Z,58.38
2019-02-28T14:25:06.096Z,56.90
2019-02-28T14:27:31.481Z,56.88
2019-02-28T14:29:57.532Z,56.33
2019-02-28T14:32:23.421Z,57.20
2019-02-28T14:34:49.336Z,57.23
2019-02-28T14:37:16.854Z,58.00
2019-02-28T14:39:43.601Z,60.70
2019-02-28T14:42:09.724Z,59.93
2019-02-28T14:44:35.566Z,60.03
2019-02-28T14:47:01.778Z,55.83
2019-02-28T14:49:27.700Z,56.50
2019-02-28T14:51:53.560Z,54.23
2019-02-28T14:54:21.816Z,54.30
2019-02-28T14:56:47.123Z,53.93
2019-02-28T14:59:13.052Z,51.70
2019-02-28T15:01:39.131Z,51.00
2019-02-28T15:04:07.783Z,52.73
2019-02-28T15:06:32.799Z,51.67
2019-02-28T15:09:05.823Z,53.67
2019-02-28T15:11:31.959Z,52.27
2019-02-28T15:13:57.792Z,53.25
2019-02-28T15:16:26.572Z,54.05
2019-02-28T15:18:51.505Z,56.23
2019-02-28T15:21:17.448Z,53.70
2019-02-28T15:23:43.301Z,54.77
2019-02-28T15:26:09.217Z,56.33
2019-02-28T15:28:35.301Z,56.20
2019-02-28T15:31:01.243Z,54.87
2019-02-28T15:33:27.505Z,55.37
2019-02-28T15:35:55.020Z,56.20
2019-02-28T15:38:20.840Z,58.30
2019-02-28T15:40:46.881Z,56.57
2019-02-28T15:43:17.157Z,55.47
2019-02-28T15:45:40.906Z,50.43
2019-02-28T15:48:06.855Z,51.87
2019-02-28T15:50:32.819Z,54.67
2019-02-28T15:52:58.928Z,51.53
2019-02-28T15:55:25.357Z,51.10
2019-02-28T15:57:51.591Z,53.03
2019-02-28T16:00:22.107Z,52.10
2019-02-28T16:02:48.974Z,51.60
2019-02-28T16:05:15.242Z,54.40
2019-02-28T16:07:41.330Z,54.67
2019-02-28T16:10:11.061Z,54.47
2019-02-28T16:12:37.000Z,51.70
2019-02-28T16:15:08.737Z,51.23
2019-02-28T16:17:36.649Z,53.07
2019-02-28T16:20:04.451Z,51.67
2019-02-28T16:22:30.436Z,51.97
2019-02-28T16:24:56.618Z,53.47
2019-02-28T16:27:22.668Z,52.27
2019-02-28T16:29:48.768Z,53.70
2019-02-28T16:32:15.412Z,51.07
2019-02-28T16:34:42.240Z,52.50
2019-02-28T16:37:09.234Z,53.80
2019-02-28T16:39:35.061Z,53.80
2019-02-28T16:42:01.082Z,54.07
2019-02-28T16:44:27.603Z,54.63
2019-02-28T16:46:56.013Z,56.07
2019-02-28T16:49:22.053Z,54.23
2019-02-28T16:51:48.120Z,56.97
2019-02-28T16:54:14.214Z,55.43
2019-02-28T16:56:40.045Z,57.53
2019-02-28T16:59:05.896Z,56.53
2019-02-28T17:01:31.757Z,56.77
2019-02-28T17:03:57.705Z,55.20
2019-02-28T17:06:23.895Z,55.87
2019-02-28T17:08:54.544Z,56.50
2019-02-28T17:11:19.865Z,55.40
2019-02-28T17:13:47.844Z,56.30
2019-02-28T17:16:15.853Z,57.27
2019-02-28T17:18:42.096Z,55.53
2019-02-28T17:21:08.051Z,57.60
2019-02-28T17:23:36.826Z,57.27
2019-02-28T17:26:01.886Z,55.93
2019-02-28T17:28:38.638Z,56.73
2019-02-28T17:31:23.225Z,55.30
2019-02-28T17:33:52.118Z,55.77
2019-02-28T17:36:17.931Z,57.00
2019-02-28T17:38:44.012Z,56.20
2019-02-28T17:41:11.135Z,57.03
2019-02-28T17:43:37.374Z,56.50
2019-02-28T17:46:03.328Z,54.43
2019-02-28T17:48:59.123Z,57.17
2019-02-28T17:51:28.807Z,56.57
2019-02-28T17:54:01.267Z,57.00
2019-02-28T17:56:55.169Z,56.63
2019-02-28T17:59:49.432Z,57.27
2019-02-28T18:02:34.477Z,55.07
2019-02-28T18:05:29.923Z,55.23
2019-02-28T18:07:53.885Z,54.00
2019-02-28T18:10:32.837Z,54.90
2019-02-28T18:13:19.977Z,53.40
2019-02-28T18:16:05.500Z,55.90
2019-02-28T18:18:59.282Z,54.57
2019-02-28T18:21:31.752Z,54.97
2019-02-28T18:24:30.090Z,54.07
2019-02-28T18:27:28.755Z,56.23
2019-02-28T18:30:18.089Z,56.00
2019-02-28T18:32:43.939Z,55.57
2019-02-28T18:35:09.879Z,56.47
2019-02-28T18:37:35.846Z,57.23
2019-02-28T18:40:03.769Z,59.63
2019-02-28T18:42:29.766Z,57.60
2019-02-28T18:44:55.600Z,57.23
2019-02-28T18:47:21.560Z,57.87
2019-02-28T18:49:47.407Z,57.90
2019-02-28T18:52:13.283Z,58.50
2019-02-28T18:54:39.413Z,58.57
2019-02-28T18:57:05.397Z,55.60
2019-02-28T18:59:31.393Z,58.10
2019-02-28T19:01:57.328Z,57.40
2019-02-28T19:04:23.210Z,49.83
2019-02-28T19:06:49.060Z,48.67
2019-02-28T19:09:17.884Z,69.00
2019-02-28T19:11:43.771Z,58.53
2019-02-28T19:14:13.605Z,59.13
2019-02-28T19:16:39.452Z,56.77
2019-02-28T19:19:05.428Z,58.00
2019-02-28T19:21:31.286Z,58.70
2019-02-28T19:23:57.240Z,58.57
2019-02-28T19:26:23.219Z,57.07
2019-02-28T19:28:49.057Z,56.17
2019-02-28T19:31:15.004Z,59.60
2019-02-28T19:33:40.953Z,59.37
2019-02-28T19:36:06.935Z,59.80
2019-02-28T19:38:32.875Z,57.80
2019-02-28T19:40:58.709Z,59.80
2019-02-28T19:43:24.690Z,60.60
2019-02-28T19:45:53.699Z,59.57
2019-02-28T19:48:19.548Z,59.33
2019-02-28T19:50:45.581Z,60.40
2019-02-28T19:53:11.501Z,61.47
2019-02-28T19:55:37.364Z,65.87
2019-02-28T19:58:03.609Z,63.07
2019-02-28T20:00:29.725Z,64.83
2019-02-28T20:02:55.585Z,63.00
2019-02-28T20:05:21.665Z,63.93
2019-02-28T20:07:47.861Z,66.03
2019-02-28T20:10:15.376Z,64.80
2019-02-28T20:12:41.413Z,66.70
2019-02-28T20:15:10.671Z,67.00
2019-02-28T20:17:36.991Z,66.63
2019-02-28T20:20:07.257Z,64.40
2019-02-28T20:22:33.203Z,64.47
2019-02-28T20:24:59.198Z,76.67
2019-02-28T20:27:25.367Z,70.57
2019-02-28T20:29:55.034Z,66.83
2019-02-28T20:32:19.354Z,68.00
2019-02-28T20:34:45.524Z,67.67
2019-02-28T20:37:11.502Z,69.07
2019-02-28T20:39:37.737Z,67.60
2019-02-28T20:42:03.930Z,68.13
2019-02-28T20:44:29.848Z,67.23
2019-02-28T20:46:55.853Z,67.00
2019-02-28T20:49:21.945Z,66.60
2019-02-28T20:51:54.772Z,67.13
2019-02-28T20:54:15.703Z,68.23
2019-02-28T20:56:44.617Z,68.87
2019-02-28T20:59:10.684Z,67.20
2019-02-28T21:01:36.631Z,67.60
2019-02-28T21:04:02.674Z,67.93
2019-02-28T21:06:28.736Z,63.83
2019-02-28T21:08:54.872Z,67.73
2019-02-28T21:11:20.932Z,65.67
2019-02-28T21:13:46.998Z,66.00
2019-02-28T21:16:13.119Z,67.20
2019-02-28T21:18:39.213Z,68.23
2019-02-28T21:21:05.286Z,67.37
2019-02-28T21:23:31.287Z,66.70
2019-02-28T21:25:57.486Z,66.63
2019-02-28T21:28:23.325Z,65.67
2019-02-28T21:30:49.409Z,66.20
2019-02-28T21:33:15.396Z,64.67
2019-02-28T21:35:41.608Z,66.63
2019-02-28T21:38:07.683Z,65.60
2019-02-28T21:40:34.335Z,66.57
2019-02-28T21:43:00.326Z,66.80
2019-02-28T21:45:27.232Z,67.03
2019-02-28T21:47:53.602Z,65.70
2019-02-28T21:50:21.193Z,63.27
2019-02-28T21:52:48.021Z,62.53
2019-02-28T21:55:17.244Z,63.80
2019-02-28T21:57:43.260Z,61.83
2019-02-28T22:00:28.128Z,61.73
2019-02-28T22:02:54.102Z,64.90
2019-02-28T22:05:20.251Z,63.67
2019-02-28T22:07:46.421Z,63.60
2019-02-28T22:10:14.192Z,64.50
2019-02-28T22:12:40.331Z,64.47
2019-02-28T22:15:12.536Z,63.00
2019-02-28T22:17:38.659Z,64.13
2019-02-28T22:20:06.578Z,65.33
2019-02-28T22:22:32.947Z,63.90
2019-02-28T22:24:59.247Z,64.40
2019-02-28T22:27:25.129Z,62.60
2019-02-28T22:29:51.105Z,64.63
2019-02-28T22:32:24.380Z,63.23
2019-02-28T22:34:48.723Z,64.70
2019-02-28T22:37:14.694Z,64.73
2019-02-28T22:39:40.782Z,65.27
2019-02-28T22:42:06.814Z,66.47
2019-02-28T22:44:32.668Z,65.40
2019-02-28T22:46:58.508Z,63.73
2019-02-28T22:49:24.466Z,63.57
2019-02-28T22:51:50.461Z,63.47
2019-02-28T22:54:16.481Z,65.00
2019-02-28T22:56:42.568Z,62.77
2019-02-28T22:59:08.445Z,70.30
2019-02-28T23:01:35.132Z,63.87
2019-02-28T23:04:01.050Z,65.07
2019-02-28T23:06:26.917Z,64.07
2019-02-28T23:08:52.879Z,62.87
2019-02-28T23:11:18.895Z,62.13
2019-02-28T23:13:44.747Z,60.90
2019-02-28T23:16:10.830Z,61.53
2019-02-28T23:18:36.702Z,61.30
2019-02-28T23:21:03.058Z,61.37
2019-02-28T23:23:29.184Z,62.73
2019-02-28T23:26:07.873Z,63.97
2019-02-28T23:28:36.897Z,63.07
2019-02-28T23:31:06.565Z,63.20
2019-02-28T23:33:32.419Z,61.13
2019-02-28T23:35:58.375Z,62.23
2019-02-28T23:38:24.362Z,62.37
2019-02-28T23:40:50.223Z,63.77
2019-02-28T23:43:16.493Z,63.30
2019-02-28T23:45:42.558Z,62.17
2019-02-28T23:48:08.845Z,62.37
2019-02-28T23:50:34.864Z,62.13
2019-02-28T23:53:00.739Z,61.63
2019-02-28T23:55:26.934Z,62.00
2019-02-28T23:57:52.771Z,62.97
